Jena, Louisiana
Current Conditions -  °F | °C
As of 8:53 PM on Friday 21 Nov 2014 (Local Time) from KESF Reporting Station
Overcast Overcast  
Wind Chill: 62°   Ceiling: 8000
Heat Index: 62°   Visibility: 10mi
Dew Point: 49°   Wind: 9mph
Humidity: 62%   Direction: 130°SE
Pressure: 30.25"   Gusts: NA
Location:  31.68°N, 92.13°W
Report Text: KESF 220253Z AUTO 13008KT 10SM BKN080 OVC100 17/09 A3025 RMK AO2 SLP241 60000 T01670094 51011
Loading
Personal Weather Stations






























Interactive Weather Map New forecast layout! Learn more

10-Day Weather Forecast

Advertisements
Track Severe Weather on mobile